createdAt,value
2019-03-27T00:03:35.972Z,14.30
2019-03-27T00:08:40.712Z,17.97
2019-03-27T00:13:45.352Z,20.90
2019-03-27T00:18:49.993Z,15.47
2019-03-27T00:23:54.737Z,17.40
2019-03-27T00:28:59.370Z,18.83
2019-03-27T00:34:04.127Z,15.27
2019-03-27T00:39:08.751Z,17.27
2019-03-27T00:44:13.396Z,13.27
2019-03-27T00:49:18.144Z,14.97
2019-03-27T00:54:22.786Z,13.40
2019-03-27T00:59:27.427Z,20.20
2019-03-27T01:04:34.635Z,17.60
2019-03-27T01:09:39.372Z,19.73
2019-03-27T01:14:44.111Z,16.90
2019-03-27T01:19:48.751Z,14.73
2019-03-27T01:24:53.290Z,18.10
2019-03-27T01:29:57.822Z,19.27
2019-03-27T01:35:02.573Z,16.80
2019-03-27T01:40:07.309Z,14.40
2019-03-27T01:45:13.198Z,16.10
2019-03-27T01:50:17.822Z,16.67
2019-03-27T01:55:22.573Z,13.07
2019-03-27T02:00:27.208Z,15.47
2019-03-27T02:05:31.952Z,14.50
2019-03-27T02:10:36.694Z,13.53
2019-03-27T02:15:41.443Z,12.13
2019-03-27T02:20:46.133Z,12.30
2019-03-27T02:25:51.950Z,12.80
2019-03-27T02:30:56.693Z,15.10
2019-03-27T02:36:01.349Z,10.57
2019-03-27T02:41:05.972Z,12.00
2019-03-27T02:46:23.621Z,12.20
2019-03-27T02:51:17.097Z,9.23
2019-03-27T02:56:21.838Z,12.80
2019-03-27T03:01:26.575Z,12.40
2019-03-27T03:06:31.325Z,13.17
2019-03-27T03:11:36.070Z,13.60
2019-03-27T03:16:42.557Z,14.77
2019-03-27T03:21:46.990Z,18.27
2019-03-27T03:26:51.773Z,16.90
2019-03-27T03:31:57.656Z,17.30
2019-03-27T03:37:04.089Z,20.50
2019-03-27T03:42:09.763Z,20.73
2019-03-27T03:47:14.489Z,12.80
2019-03-27T03:52:19.549Z,15.57
2019-03-27T03:57:24.181Z,17.70
2019-03-27T04:02:29.030Z,12.53
2019-03-27T04:07:33.767Z,16.77
2019-03-27T04:12:38.537Z,19.20
2019-03-27T04:17:43.255Z,18.10
2019-03-27T04:22:48.003Z,19.00
2019-03-27T04:27:53.869Z,15.47
2019-03-27T04:32:58.859Z,34.67
2019-03-27T04:38:03.660Z,22.07
2019-03-27T04:43:08.325Z,20.67
2019-03-27T04:48:13.040Z,18.30
2019-03-27T04:53:17.787Z,29.10
2019-03-27T04:58:22.344Z,25.70
2019-03-27T05:03:27.065Z,42.60
2019-03-27T05:08:31.659Z,36.87
2019-03-27T05:13:36.467Z,116.77
2019-03-27T05:18:41.190Z,35.80
2019-03-27T05:23:45.934Z,50.07
2019-03-27T05:28:50.680Z,28.90
2019-03-27T05:33:55.269Z,82.30
2019-03-27T05:39:00.059Z,23.07
2019-03-27T05:44:04.803Z,22.27
2019-03-27T05:49:09.649Z,19.13
2019-03-27T05:54:14.395Z,30.00
2019-03-27T05:59:19.136Z,22.40
2019-03-27T06:04:23.878Z,22.33
2019-03-27T06:09:28.622Z,29.83
2019-03-27T06:14:33.366Z,31.27
2019-03-27T06:19:38.206Z,27.87
2019-03-27T06:24:42.951Z,49.27
2019-03-27T06:29:47.482Z,33.80
2019-03-27T06:34:52.231Z,37.10
2019-03-27T06:39:56.975Z,53.60
2019-03-27T06:45:01.821Z,27.83
2019-03-27T06:50:06.668Z,51.53
2019-03-27T06:55:12.343Z,16.50
2019-03-27T07:00:18.097Z,6.67
2019-03-27T07:05:22.840Z,8.80
2019-03-27T07:10:27.542Z,16.77
2019-03-27T07:15:35.458Z,11.70
2019-03-27T07:20:40.965Z,7.37
2019-03-27T07:25:46.803Z,6.60
2019-03-27T07:30:51.779Z,7.53
2019-03-27T07:35:56.424Z,4.90
2019-03-27T07:41:01.473Z,6.10
2019-03-27T07:46:06.113Z,5.47
2019-03-27T07:51:12.602Z,7.73
2019-03-27T07:56:17.338Z,4.30
2019-03-27T08:01:22.085Z,4.27
2019-03-27T08:06:26.824Z,8.10
2019-03-27T08:11:31.719Z,4.63
2019-03-27T08:16:36.618Z,5.27
2019-03-27T08:21:41.362Z,5.87
2019-03-27T08:26:45.994Z,5.47
2019-03-27T08:31:50.640Z,16.43
2019-03-27T08:36:55.513Z,5.07
2019-03-27T08:42:00.132Z,7.33
2019-03-27T08:47:04.978Z,5.73
2019-03-27T08:52:09.620Z,7.10
2019-03-27T08:57:14.361Z,5.87
2019-03-27T09:02:19.104Z,12.33
2019-03-27T09:07:23.851Z,8.27
2019-03-27T09:12:28.469Z,7.13
2019-03-27T09:17:33.134Z,10.67
2019-03-27T09:22:39.409Z,6.00
2019-03-27T09:27:44.149Z,4.87
2019-03-27T09:32:48.781Z,7.73
2019-03-27T09:37:53.534Z,7.23
2019-03-27T09:42:58.278Z,7.20
2019-03-27T09:48:03.127Z,5.40
2019-03-27T09:53:07.877Z,5.80
2019-03-27T09:58:12.612Z,4.97
2019-03-27T10:03:17.253Z,8.03
2019-03-27T10:08:21.895Z,5.80
2019-03-27T10:13:26.455Z,14.13
2019-03-27T10:18:31.176Z,32.83
2019-03-27T10:23:35.815Z,7.60
2019-03-27T10:28:40.560Z,9.33
2019-03-27T10:33:45.310Z,7.57
2019-03-27T10:38:50.050Z,8.33
2019-03-27T10:43:54.691Z,4.30
2019-03-27T10:48:59.446Z,5.30
2019-03-27T10:54:04.176Z,21.97
2019-03-27T10:59:08.921Z,7.13
2019-03-27T11:04:13.681Z,7.53
2019-03-27T11:09:18.404Z,5.73
2019-03-27T11:14:36.637Z,5.17
2019-03-27T11:19:29.226Z,4.73
2019-03-27T11:24:34.996Z,5.47
2019-03-27T11:29:39.638Z,4.93
2019-03-27T11:34:44.584Z,5.70
2019-03-27T11:39:49.209Z,8.90
2019-03-27T11:44:53.972Z,6.50
2019-03-27T11:49:58.621Z,4.50
2019-03-27T11:55:03.366Z,4.73
2019-03-27T12:00:09.640Z,5.53
2019-03-27T12:05:14.375Z,5.70
2019-03-27T12:10:19.224Z,4.43
2019-03-27T12:15:38.504Z,6.13
2019-03-27T12:20:43.250Z,7.27
2019-03-27T12:25:47.995Z,4.33
2019-03-27T12:30:52.708Z,4.33
2019-03-27T12:35:57.380Z,4.73
2019-03-27T12:41:02.123Z,8.97
2019-03-27T12:46:08.304Z,6.73
2019-03-27T12:51:13.508Z,7.97
2019-03-27T12:56:18.296Z,8.20
2019-03-27T13:01:22.939Z,8.20
2019-03-27T13:06:27.690Z,10.87
2019-03-27T13:11:32.328Z,11.47
2019-03-27T13:16:36.872Z,12.40
2019-03-27T13:21:43.248Z,7.80
2019-03-27T13:26:48.089Z,8.63
2019-03-27T13:31:52.833Z,11.67
2019-03-27T13:36:58.580Z,11.73
2019-03-27T13:42:03.250Z,15.17
2019-03-27T13:47:08.312Z,13.17
2019-03-27T13:52:14.702Z,17.03
2019-03-27T13:57:19.518Z,10.53
2019-03-27T14:02:24.269Z,18.37
2019-03-27T14:07:28.919Z,9.13
2019-03-27T14:12:33.755Z,12.17
2019-03-27T14:17:38.497Z,10.17
2019-03-27T14:22:43.338Z,10.50
2019-03-27T14:27:48.081Z,10.23
2019-03-27T14:32:52.897Z,13.83
2019-03-27T14:38:00.065Z,11.17
2019-03-27T14:43:05.284Z,13.13
2019-03-27T14:48:10.127Z,9.07
2019-03-27T14:53:14.884Z,10.07
2019-03-27T14:58:19.518Z,12.07
2019-03-27T15:03:24.358Z,16.17
2019-03-27T15:08:29.104Z,10.27
2019-03-27T15:13:33.830Z,9.47
2019-03-27T15:18:38.875Z,11.77
2019-03-27T15:23:43.641Z,10.73
2019-03-27T15:28:50.797Z,11.30
2019-03-27T15:33:54.560Z,11.27
2019-03-27T15:38:59.304Z,11.80
2019-03-27T15:44:03.950Z,10.20
2019-03-27T15:49:08.703Z,12.23
2019-03-27T15:54:13.637Z,10.37
2019-03-27T15:59:18.503Z,8.87
2019-03-27T16:04:23.225Z,11.53
2019-03-27T16:09:27.973Z,12.37
2019-03-27T16:14:32.721Z,11.00
2019-03-27T16:19:37.585Z,9.53
2019-03-27T16:24:42.409Z,15.80
2019-03-27T16:29:48.339Z,9.50
2019-03-27T16:34:54.154Z,9.13
2019-03-27T16:39:58.994Z,9.77
2019-03-27T16:45:05.172Z,13.50
2019-03-27T16:50:10.242Z,7.27
2019-03-27T16:55:14.962Z,7.00
2019-03-27T17:00:20.734Z,13.57
2019-03-27T17:05:27.213Z,23.43
2019-03-27T17:10:31.957Z,9.07
2019-03-27T17:15:37.178Z,12.87
2019-03-27T17:20:41.975Z,10.73
2019-03-27T17:25:46.921Z,22.40
2019-03-27T17:30:51.760Z,47.10
2019-03-27T17:35:58.823Z,13.67
2019-03-27T17:41:05.563Z,11.17
2019-03-27T17:46:12.360Z,20.97
2019-03-27T17:51:20.043Z,18.80
2019-03-27T17:56:27.500Z,11.83
2019-03-27T18:01:34.361Z,12.90
2019-03-27T18:06:40.107Z,10.37
2019-03-27T18:11:45.115Z,11.73
2019-03-27T18:16:52.238Z,24.70
2019-03-27T18:22:07.061Z,26.90
2019-03-27T18:27:04.263Z,26.20
2019-03-27T18:32:12.887Z,21.37
2019-03-27T18:37:17.784Z,43.83
2019-03-27T18:42:22.532Z,29.90
2019-03-27T18:47:27.272Z,21.40
2019-03-27T18:52:32.008Z,14.00
2019-03-27T18:57:36.807Z,15.57
2019-03-27T19:02:41.495Z,65.10
2019-03-27T19:07:46.236Z,30.80
2019-03-27T19:12:51.016Z,40.10
2019-03-27T19:17:56.039Z,52.63
2019-03-27T19:23:01.349Z,33.87
2019-03-27T19:28:06.041Z,23.53
2019-03-27T19:33:10.778Z,29.27
2019-03-27T19:38:15.818Z,26.83
2019-03-27T19:43:20.673Z,38.37
2019-03-27T19:48:25.453Z,43.60
2019-03-27T19:53:30.257Z,50.23
2019-03-27T19:58:34.998Z,43.57
2019-03-27T20:03:40.664Z,49.33
2019-03-27T20:08:45.637Z,36.67
2019-03-27T20:13:51.692Z,33.37
2019-03-27T20:18:56.507Z,34.67
2019-03-27T20:24:01.824Z,58.53
2019-03-27T20:29:06.634Z,27.33
2019-03-27T20:34:11.380Z,17.50
2019-03-27T20:39:16.014Z,19.57
2019-03-27T20:44:20.977Z,22.57
2019-03-27T20:49:25.605Z,19.90
2019-03-27T20:54:30.577Z,26.17
2019-03-27T20:59:35.505Z,28.40
2019-03-27T21:04:40.342Z,23.57
2019-03-27T21:09:45.008Z,17.23
2019-03-27T21:14:49.868Z,22.07
2019-03-27T21:19:54.882Z,20.77
2019-03-27T21:25:08.740Z,22.53
2019-03-27T21:30:08.730Z,20.57
2019-03-27T21:35:15.559Z,22.80
2019-03-27T21:40:20.506Z,18.97
2019-03-27T21:45:25.353Z,22.63
2019-03-27T21:50:30.230Z,27.60
2019-03-27T21:55:42.528Z,31.83
2019-03-27T22:00:41.321Z,26.63
2019-03-27T22:05:46.192Z,44.57
2019-03-27T22:10:51.118Z,46.63
2019-03-27T22:15:55.752Z,36.87
2019-03-27T22:21:00.653Z,35.00
2019-03-27T22:26:05.443Z,42.70
2019-03-27T22:31:10.302Z,51.57
2019-03-27T22:36:15.036Z,38.10
2019-03-27T22:41:19.884Z,34.43
2019-03-27T22:46:24.576Z,41.20
2019-03-27T22:51:29.256Z,28.30
2019-03-27T22:56:34.002Z,22.93
2019-03-27T23:01:45.276Z,19.53
2019-03-27T23:06:50.143Z,23.67
2019-03-27T23:11:54.989Z,17.60
2019-03-27T23:16:59.907Z,18.30
2019-03-27T23:22:04.783Z,28.90
2019-03-27T23:27:09.520Z,22.53
2019-03-27T23:32:14.373Z,15.47
2019-03-27T23:37:19.112Z,21.53
2019-03-27T23:42:24.013Z,15.80
2019-03-27T23:47:28.694Z,15.60
2019-03-27T23:52:33.643Z,15.57
2019-03-27T23:57:38.282Z,19.90
